Terminal Aerodrome Forecast
Issued by NWS

Home | Current Version | Previous Version | Text Only | Print | Product List | Glossary On
Versions: 1 2 3 4 5 6 7 8 9 10 11 12 13 14 15 16 17 18 19 20 21 22 23 24 25 26 27 28 29 30 31 32 33 34 35 36 37 38
000
FTUS41 KBOX 070817 AAA
TAFACK
TAF AMD
KACK 070817Z 0708/0806 14006KT P6SM SCT200
     FM071100 16007KT 5SM BR SCT025 BKN200
     FM071400 16010KT P6SM BKN035
     FM072000 18011G22KT P6SM BKN050
     FM072300 20010G20KT P6SM BKN035
     FM080300 21011KT P6SM BKN003=

USA.gov is the U.S. government's official web portal to all federal, state and local government web resources and services.